Data for 08/05/2007

Time Sea-Level Adjusted Pressure Absolute Pressure Temperature Relative Humidity Dew Point   
(mb) (inHg) (mb) (inHg) (C) (F) (%) (C) (F)
00:05 1018 30.06 847 25.01 18.5 65.2 50 8 46.5
00:10 1018 30.06 847 25.01 18.6 65.5 51 8.3 46.9
00:15 1018 30.06 847 25.01 18.6 65.4 52 8.6 47.5
00:20 1018 30.06 847 25.01 18.5 65.2 53 8.8 47.8
00:25 1018 30.06 847 25.01 18.4 65.2 54 8.9 48.1
00:30 1018 30.06 847 25.01 18.2 64.7 55 9.1 48.4
00:35 1018 30.06 847 25.01 17.9 64.1 54 8.6 47.4
00:40 1018 30.06 847 25.01 18 64.4 52 8.1 46.6
00:45 1018 30.06 847 25.01 17.9 64.3 52 8 46.3
00:50 1018 30.06 847 25.01 17.9 64.2 53 8.3 46.9
00:55 1018 30.06 847 25.01 17.7 63.8 55 8.5 47.4
01:00 1018 30.06 847 25.01 17.2 62.9 57 8.7 47.7
01:05 1018 30.06 847 25.01 17 62.6 56 8.3 47
01:10 1018 30.06 847 25.01 16.6 61.8 58 8.4 47.2
01:15 1018 30.06 847 25.01 16.2 61.1 60 8.6 47.4
01:20 1018 30.06 847 25.01 16 60.9 60 8.3 47
01:25 1018 30.06 847 25.01 15.8 60.4 61 8.3 46.9
01:30 1018 30.06 847 25.01 15.7 60.2 61 8.3 46.9
01:35 1018 30.06 847 25.01 15.2 59.3 63 8.2 46.8
01:40 1018 30.06 847 25.01 15.2 59.3 61 7.7 45.8
01:45 1018 30.06 847 25.01 15.4 59.7 60 7.7 45.9
01:50 1018 30.06 847 25.01 15.5 59.9 60 7.8 46.1
01:55 1018 30.06 847 25.01 15.4 59.7 59 7.6 45.6
02:00 1018 30.06 847 25.01 15.5 59.9 58 7.5 45.4
02:05 1018 30.06 847 25.01 15.6 60 57 7.2 45
02:10 1018 30.06 847 25.01 15.9 60.7 55 7.1 44.7
02:15 1018 30.06 847 25.01 16.3 61.3 54 7 44.6
02:20 1018 30.06 847 25.01 16 60.8 56 7.3 45.1
02:25 1018 30.06 847 25.01 15.9 60.6 55 6.9 44.4
02:30 1018 30.06 847 25.01 16.1 60.9 56 7.4 45.2
02:35 1018 30.06 847 25.01 15.5 59.8 58 7.4 45.3
02:40 1017 30.03 847 25.01 15.3 59.6 59 7.4 45.3
02:45 1017 30.03 847 25.01 15.4 59.7 58 7.3 45.2
02:50 1017 30.03 847 25.01 15 58.9 60 7.4 45.4
02:55 1017 30.03 847 25.01 14.8 58.6 61 7.5 45.4
03:00 1017 30.03 847 25.01 14.8 58.6 61 7.5 45.6
03:05 1017 30.03 847 25.01 14.9 58.7 60 7.4 45.2
03:10 1017 30.03 847 25.01 14.9 58.9 59 7.2 44.9
03:15 1017 30.03 847 25.01 15.1 59.2 58 6.9 44.5
03:20 1017 30.03 847 25.01 15.4 59.7 56 6.8 44.3
03:25 1018 30.06 847 25.01 15.6 60.1 56 6.9 44.4
03:30 1018 30.06 847 25.01 15.8 60.4 55 6.8 44.2
03:35 1018 30.06 847 25.01 15.8 60.5 55 6.9 44.3
03:40 1018 30.06 847 25.01 15.8 60.4 55 6.9 44.4
03:45 1018 30.06 847 25.01 15.6 60 57 7.1 44.7
03:50 1018 30.06 847 25.01 15.4 59.8 56 6.9 44.4
03:55 1018 30.06 847 25.01 15.4 59.7 56 6.8 44.3
04:00 1018 30.06 847 25.01 15.7 60.2 56 6.9 44.4
04:05 1018 30.06 847 25.01 15.4 59.7 57 7.1 44.8
04:10 1018 30.06 847 25.01 15 58.9 59 7 44.7
04:15 1018 30.06 847 25.01 14.7 58.4 60 7.1 44.7
04:20 1018 30.06 847 25.01 14.6 58.3 59 6.9 44.4
04:25 1018 30.06 847 25.01 14.7 58.4 59 6.9 44.5
04:30 1018 30.06 847 25.01 14.6 58.2 60 6.9 44.4
04:35 1018 30.06 847 25.01 14.4 57.9 60 6.9 44.4
04:40 1018 30.06 847 25.01 14.3 57.8 60 6.8 44.3
04:45 1018 30.06 847 25.01 14.1 57.4 61 6.8 44.2
04:50 1018 30.06 847 25.01 14.3 57.8 59 6.4 43.5
04:55 1018 30.06 847 25.01 14.7 58.4 58 6.5 43.7
05:00 1018 30.06 847 25.01 14.6 58.3 58 6.6 43.8
05:05 1018 30.06 847 25.01 14.3 57.7 61 6.9 44.4
05:10 1018 30.06 847 25.01 14.1 57.4 60 6.6 43.9
05:15 1018 30.06 847 25.01 14.6 58.3 58 6.5 43.8
05:20 1018 30.06 847 25.01 14.5 58.1 59 6.6 44
05:25 1018 30.06 847 25.01 14.7 58.4 57 6.4 43.6
05:30 1018 30.06 847 25.01 14.7 58.5 59 6.9 44.5
05:35 1018 30.06 847 25.01 14.1 57.3 61 6.8 44.2
05:40 1018 30.06 847 25.01 13.6 56.6 63 6.7 44.1
05:45 1018 30.06 847 25.01 13.5 56.4 62 6.5 43.7
05:50 1018 30.06 847 25.01 13.7 56.6 62 6.6 43.8
05:55 1018 30.06 847 25.01 13.9 57.1 60 6.4 43.5
06:00 1018 30.06 847 25.01 14.2 57.5 60 6.6 43.9
06:05 1018 30.06 847 25.01 14 57.2 62 6.8 44.3
06:10 1018 30.06 847 25.01 13.6 56.4 64 6.9 44.5
06:15 1018 30.06 847 25.01 13.2 55.7 65 6.9 44.4
06:20 1018 30.06 847 25.01 12.9 55.2 67 6.9 44.4
06:25 1018 30.06 847 25.01 12.6 54.7 68 6.9 44.3
06:30 1018 30.06 847 25.01 12.7 54.8 67 6.7 44.1
06:35 1018 30.06 847 25.01 12.8 55 66 6.6 43.9
06:40 1018 30.06 847 25.01 12.9 55.2 66 6.7 44
06:45 1018 30.06 847 25.01 13.1 55.6 63 6.2 43.1
06:50 1018 30.06 847 25.01 13.9 56.9 62 6.7 44.1
06:55 1018 30.06 847 25.01 13.7 56.7 62 6.7 44
07:00 1018 30.06 847 25.01 13.9 57.1 61 6.6 43.8
07:05 1018 30.06 847 25.01 14.2 57.5 59 6.4 43.4
07:10 1018 30.06 847 25.01 14.8 58.6 57 6.5 43.6
07:15 1018 30.06 848 25.04 15 59 58 6.8 44.2
07:20 1018 30.06 847 25.01 14.7 58.5 60 7.1 44.7
07:25 1018 30.06 847 25.01 14.6 58.2 60 7 44.6
07:30 1018 30.06 848 25.04 15 58.9 57 6.6 43.9
07:35 1018 30.06 848 25.04 15 58.9 58 6.9 44.5
07:40 1018 30.06 847 25.01 14.9 58.9 58 6.7 44.1
07:45 1018 30.06 847 25.01 15.1 59.2 58 7 44.6
07:50 1018 30.06 847 25.01 15.1 59.2 57 6.8 44.3
07:55 1018 30.06 847 25.01 15.4 59.8 57 7 44.6
08:00 1018 30.06 847 25.01 15.6 60.1 58 7.4 45.3
08:05 1018 30.06 847 25.01 15.7 60.2 58 7.4 45.4
08:10 1018 30.06 847 25.01 15.9 60.7 57 7.6 45.6
08:15 1018 30.06 847 25.01 16.2 61.1 56 7.4 45.3
08:20 1018 30.06 847 25.01 16.8 62.2 54 7.5 45.6
08:25 1018 30.06 847 25.01 17.3 63.1 59 9.4 48.9
08:30 1018 30.06 847 25.01 17.5 63.5 54 8.2 46.7
08:35 1018 30.06 847 25.01 18 64.3 50 7.5 45.5
08:40 1018 30.06 847 25.01 18.6 65.5 49 7.9 46.3
08:45 1018 30.06 847 25.01 19 66.2 47 7.6 45.6
08:50 1018 30.06 847 25.01 19.3 66.8 48 8.3 46.9
08:55 1018 30.06 847 25.01 18.8 65.9 50 8.4 47.1
09:00 1018 30.06 847 25.01 19.3 66.7 47 7.9 46.2
09:05 1018 30.06 847 25.01 19.4 66.9 48 8.1 46.6
09:10 1018 30.06 847 25.01 20.2 68.4 43 7.5 45.6
09:15 1018 30.06 847 25.01 20.1 68.2 45 8.1 46.5
09:20 1018 30.06 847 25.01 20.1 68.1 46 8.2 46.7
09:25 1018 30.06 847 25.01 19.2 66.6 51 8.9 47.9
09:30 1018 30.06 847 25.01 18.6 65.5 51 8.5 47.3
09:35 1018 30.06 847 25.01 18.4 65.2 50 8 46.4
09:40 1018 30.06 847 25.01 19.3 66.7 47 7.9 46.3
09:45 1018 30.06 847 25.01 19.9 67.8 46 8 46.4
09:50 1018 30.06 847 25.01 19.2 66.6 47 7.8 46
09:55 1018 30.06 847 25.01 19.2 66.6 46 7.3 45.2
10:00 1018 30.06 847 25.01 19.5 67 48 8.3 47
10:05 1018 30.06 847 25.01 20.2 68.4 43 7.4 45.3
10:10 1018 30.06 847 25.01 20.5 68.8 44 7.9 46.3
10:15 1018 30.06 847 25.01 20.2 68.3 45 8 46.5
10:20 1018 30.06 847 25.01 20.8 69.5 43 8 46.3
10:25 1018 30.06 847 25.01 21.5 70.8 41 7.8 46
10:30 1018 30.06 847 25.01 21.9 71.4 41 8.3 46.9
10:35 1018 30.06 847 25.01 22.2 71.9 40 8.1 46.6
10:40 1018 30.06 847 25.01 22.3 72.2 41 8.6 47.5
10:45 1018 30.06 847 25.01 22.1 71.8 42 8.7 47.6
10:50 1018 30.06 847 25.01 21.9 71.4 42 8.4 47.2
10:55 1018 30.06 847 25.01 21.6 70.8 41 8 46.3
11:00 1018 30.06 847 25.01 22.2 72 42 8.7 47.7
11:05 1018 30.06 847 25.01 22.5 72.5 41 8.8 47.8
11:10 1017 30.03 847 25.01 21.7 71 45 9.3 48.7
11:15 1017 30.03 847 25.01 21.9 71.5 42 8.6 47.5
11:20 1017 30.03 847 25.01 22.2 72 40 8.3 46.9
11:25 1017 30.03 847 25.01 22.1 71.8 43 9.2 48.6
11:30 1017 30.03 846 24.98 22.2 71.9 42 8.7 47.6
11:35 1017 30.03 846 24.98 23.1 73.6 39 8.6 47.4
11:40 1017 30.03 846 24.98 22.3 72.2 43 9.5 49.1
11:45 1017 30.03 846 24.98 22.2 71.9 43 9.1 48.4
11:50 1017 30.03 846 24.98 21.8 71.2 42 8.6 47.4
11:55 1017 30.03 846 24.98 22.7 72.9 38 7.9 46.3
12:00 1017 30.03 846 24.98 23.3 73.9 39 8.8 47.9
12:05 1017 30.03 846 24.98 23.9 74.9 37 8.7 47.6
12:10 1017 30.03 846 24.98 24.5 76.2 35 8.4 47.2
12:15 1016 30 846 24.98 25 77 35 8.7 47.6
12:20 1016 30 845 24.95 24.5 76 37 9 48.2
12:25 1016 30 845 24.95 25 77 35 8.7 47.7
12:30 1016 30 845 24.95 25.2 77.4 35 8.9 48
12:35 1016 30 845 24.95 25.5 77.9 34 8.7 47.7
12:40 1016 30 845 24.95 25.5 77.9 35 9 48.2
12:45 1016 30 845 24.95 26 78.7 32 8.4 47.2
12:50 1016 30 845 24.95 26.7 80 31 8.4 47.1
12:55 1016 30 845 24.95 26.6 79.9 34 9.5 49.1
13:00 1016 30 845 24.95 25.6 78 34 8.6 47.6
13:05 1016 30 845 24.95 25.3 77.5 33 8.2 46.8
13:10 1016 30 845 24.95 25.8 78.5 34 8.8 47.9
13:15 1016 30 845 24.95 26.4 79.6 32 8.8 47.8
13:20 1016 30 845 24.95 26 78.8 33 8.9 48
13:25 1016 30 845 24.95 25.2 77.4 34 8.3 46.9
13:30 1016 30 845 24.95 25.9 78.6 34 9.1 48.4
13:35 1016 30 845 24.95 25.4 77.7 35 9 48.2
13:40 1016 30 845 24.95 25.1 77.1 37 9.5 49
13:45 1016 30 845 24.95 24.8 76.6 33 7.8 46.1
13:50 1016 30 845 24.95 25 76.9 33 7.9 46.3
13:55 1015 29.97 845 24.95 25.3 77.5 32 7.5 45.5
14:00 1015 29.97 845 24.95 25.2 77.4 31 7.2 44.9
14:05 1015 29.97 845 24.95 24.7 76.4 33 7.5 45.5
14:10 1015 29.97 844 24.92 24.6 76.3 33 7.6 45.6
14:15 1015 29.97 844 24.92 24.3 75.8 34 7.9 46.2
14:20 1015 29.97 844 24.92 24.3 75.8 35 7.9 46.3
14:25 1015 29.97 844 24.92 24.5 76.2 34 7.8 46
14:30 1015 29.97 844 24.92 24.7 76.5 32 7.4 45.2
14:35 1015 29.97 844 24.92 24.8 76.6 33 7.7 45.9
14:40 1015 29.97 844 24.92 24.9 76.8 33 7.8 46
14:45 1015 29.97 844 24.92 25.4 77.7 32 7.9 46.3
14:50 1015 29.97 844 24.92 25.4 77.7 33 8.4 47.1
14:55 1015 29.97 844 24.92 24.8 76.7 34 8.2 46.7
15:00 1014 29.94 844 24.92 24.5 76.2 34 7.9 46.2
15:05 1014 29.94 843 24.89 24.5 76.1 34 7.8 46
15:10 1014 29.94 843 24.89 24.4 75.9 34 7.9 46.2
15:15 1014 29.94 843 24.89 24.4 75.9 34 7.7 45.8
15:20 1014 29.94 843 24.89 24.4 75.9 34 7.7 45.9
15:25 1014 29.94 843 24.89 24.3 75.7 35 7.8 46.1
15:30 1014 29.94 843 24.89 24.1 75.4 35 7.8 46.1
15:35 1014 29.94 843 24.89 24 75.1 35 7.6 45.6
15:40 1014 29.94 843 24.89 23.8 74.9 35 7.6 45.7
15:45 1014 29.94 843 24.89 23.7 74.7 35 7.4 45.4
15:50 1014 29.94 843 24.89 23.6 74.6 35 7.6 45.6
15:55 1014 29.94 844 24.92 23.5 74.2 36 7.8 46.1
16:00 1015 29.97 844 24.92 23.4 74.1 36 7.5 45.5
16:05 1015 29.97 844 24.92 23.4 74.1 35 7.2 45
16:10 1016 30 845 24.95 23.2 73.7 39 8.7 47.7
16:15 1016 30 845 24.95 21.8 71.2 55 12.4 54.4
16:20 1016 30 845 24.95 20 67.9 59 11.8 53.2
16:25 1016 30 846 24.98 19.3 66.7 65 12.6 54.7
16:30 1017 30.03 846 24.98 18.4 65.2 71 13.1 55.6
16:35 1017 30.03 846 24.98 17.8 64 74 13.3 55.9
16:40 1016 30 846 24.98 17.8 64.1 76 13.7 56.6
16:45 1016 30 845 24.95 18 64.3 71 12.7 54.9
16:50 1016 30 845 24.95 17.7 63.8 75 13.2 55.8
16:55 1016 30 846 24.98 17.6 63.7 74 13 55.4
17:00 1017 30.03 846 24.98 17.9 64.2 72 12.8 55.1
17:05 1017 30.03 846 24.98 18 64.4 76 13.7 56.6
17:10 1017 30.03 846 24.98 18.1 64.5 73 13.3 55.9
17:15 1017 30.03 846 24.98 18.4 65.1 70 12.9 55.3
17:20 1017 30.03 846 24.98 18.9 66 68 13 55.4
17:25 1017 30.03 846 24.98 19.3 66.7 67 13 55.4
17:30 1017 30.03 846 24.98 19 66.2 71 13.7 56.7
17:35 1016 30 846 24.98 18.6 65.5 72 13.6 56.4
17:40 1016 30 846 24.98 18.5 65.3 74 13.8 56.8
17:45 1016 30 845 24.95 18.7 65.6 70 13.2 55.8
17:50 1016 30 845 24.95 18.8 65.9 67 12.6 54.8
17:55 1016 30 845 24.95 19.4 67 67 13.3 56
18:00 1016 30 845 24.95 20.2 68.4 63 13.1 55.5
18:05 1016 30 845 24.95 20 67.9 64 13.2 55.7
18:10 1016 30 845 24.95 20 67.9 60 12.2 53.9
18:15 1016 30 845 24.95 20 68 61 12.5 54.5
18:20 1015 29.97 845 24.95 20 68 61 12.3 54.2
18:25 1015 29.97 845 24.95 19.7 67.4 62 12.3 54.2
18:30 1015 29.97 844 24.92 19.4 66.9 60 11.6 52.9
18:35 1015 29.97 844 24.92 19.4 67 61 11.9 53.5
18:40 1015 29.97 844 24.92 19.3 66.8 60 11.6 52.8
18:45 1015 29.97 844 24.92 19.2 66.6 60 11.3 52.4
18:50 1015 29.97 844 24.92 19.1 66.4 62 11.7 53
18:55 1015 29.97 844 24.92 19.1 66.3 61 11.6 52.8
19:00 1015 29.97 844 24.92 19.1 66.3 64 12.2 54
19:05 1015 29.97 844 24.92 19.1 66.3 62 11.7 53.1
19:10 1016 30 845 24.95 19 66.2 64 12.1 53.9
19:15 1016 30 845 24.95 19 66.1 67 12.7 54.8
19:20 1016 30 845 24.95 17.5 63.6 81 14.3 57.7
19:25 1016 30 846 24.98 16.8 62.2 81 13.4 56.2
19:30 1016 30 845 24.95 16.7 62 81 13.4 56.2
19:35 1015 29.97 844 24.92 16.3 61.4 88 14.3 57.7
19:40 1015 29.97 845 24.95 16.2 61.2 85 13.7 56.6
19:45 1015 29.97 845 24.95 16.4 61.5 83 13.5 56.3
19:50 1015 29.97 845 24.95 16.4 61.5 82 13.4 56.1
19:55 1016 30 845 24.95 16.5 61.6 83 13.7 56.6
20:00 1016 30 845 24.95 16.3 61.3 84 13.6 56.6
20:05 1016 30 845 24.95 16.1 61 83 13.2 55.7
20:10 1016 30 845 24.95 15.9 60.7 84 13.3 55.9
20:15 1016 30 845 24.95 16.1 61.1 79 12.5 54.5
20:20 1016 30 845 24.95 16.4 61.4 84 13.7 56.6
20:25 1016 30 845 24.95 15.9 60.7 87 13.8 56.8
20:30 1016 30 845 24.95 15.7 60.3 86 13.5 56.3
20:35 1016 30 845 24.95 15.9 60.7 85 13.4 56.2
20:40 1016 30 845 24.95 16.1 61 83 13.3 55.9
20:45 1015 29.97 845 24.95 16.3 61.3 84 13.6 56.4
20:50 1015 29.97 845 24.95 15.8 60.5 84 13.1 55.6
20:55 1015 29.97 844 24.92 15.4 59.7 83 12.6 54.6
21:00 1015 29.97 844 24.92 15.1 59.2 83 12.2 54
21:05 1015 29.97 844 24.92 14.9 58.8 83 12 53.7
21:10 1014 29.94 844 24.92 14.8 58.7 82 11.8 53.2
21:15 1015 29.97 844 24.92 15 59 80 11.6 52.9
21:20 1015 29.97 844 24.92 15.1 59.2 80 11.7 53.1
21:25 1015 29.97 844 24.92 15.1 59.2 80 11.7 53
21:30 1015 29.97 844 24.92 15.2 59.4 79 11.6 52.9
21:35 1015 29.97 844 24.92 15.3 59.5 80 11.9 53.4
21:40 1015 29.97 844 24.92 15.3 59.6 79 11.7 53
21:45 1014 29.94 844 24.92 15.4 59.7 77 11.4 52.6
21:50 1015 29.97 844 24.92 15.5 59.8 76 11.4 52.5
21:55 1015 29.97 844 24.92 15.6 60.1 76 11.5 52.7
22:00 1016 30 845 24.95 15.8 60.4 76 11.7 53
22:05 1016 30 845 24.95 15.8 60.4 80 12.4 54.4
22:10 1016 30 845 24.95 15.6 60.1 78 11.8 53.2
22:15 1016 30 846 24.98 15.2 59.4 81 12 53.7
22:20 1017 30.03 846 24.98 14 57.2 91 12.5 54.5
22:25 1018 30.06 847 25.01 13.5 56.3 92 12.3 54.1
22:30 1018 30.06 847 25.01 13.6 56.4 93 12.4 54.4
22:35 1018 30.06 848 25.04 13.7 56.6 94 12.8 55
22:40 1018 30.06 848 25.04 13.7 56.7 95 12.9 55.3
22:45 1019 30.09 848 25.04 13.8 56.9 92 12.6 54.7
22:50 1019 30.09 848 25.04 13.8 56.8 91 12.3 54.2
22:55 1019 30.09 848 25.04 13.6 56.5 91 12.2 54
23:00 1018 30.06 848 25.04 13.4 56.1 92 12.2 53.9
23:05 1018 30.06 848 25.04 13.3 55.9 93 12.2 54
23:10 1019 30.09 848 25.04 13.2 55.7 93 12.1 53.8
23:15 1019 30.09 848 25.04 13.1 55.6 93 12 53.7
23:20 1019 30.09 848 25.04 13 55.3 93 11.9 53.4
23:25 1019 30.09 848 25.04 12.9 55.1 92 11.6 53
23:30 1019 30.09 848 25.04 12.8 55.1 92 11.5 52.7
23:35 1019 30.09 848 25.04 12.9 55.2 91 11.4 52.6
23:40 1018 30.06 848 25.04 13 55.3 91 11.5 52.7
23:45 1018 30.06 848 25.04 12.9 55.2 90 11.2 52.2
23:50 1018 30.06 848 25.04 13 55.3 88 11 51.8
23:55 1018 30.06 848 25.04 13 55.3 88 11 51.9
24:00 1018 30.06 847 25.01 13 55.3 86 10.7 51.3